Time;durP1;ratioP1;P1;durP2;ratioP2;P2;SDS_P1;SDS_P2;PMS_P1;PMS_P2;Temp;Humidity;BMP_temperature;BMP_pressure;BME280_temperature;BME280_humidity;BME280_pressure;Samples;Min_cycle;Max_cycle;Signal;HPM_P1;HPM_P2
2022/08/27 00:00:14;;;;;;;13.83;12.40;;;18.70;99.90;;;;;;5036429;28;20179;-78
2022/08/27 00:02:43;;;;;;;17.63;16.03;;;18.70;99.90;;;;;;5035207;28;20190;-77
2022/08/27 00:05:11;;;;;;;17.40;15.93;;;18.70;99.90;;;;;;5035524;28;20218;-78
2022/08/27 00:07:36;;;;;;;25.57;23.63;;;18.70;99.90;;;;;;5035022;28;20582;-78
2022/08/27 00:10:04;;;;;;;24.57;22.60;;;18.80;99.90;;;;;;5035988;28;20175;-78
2022/08/27 00:12:30;;;;;;;27.90;25.83;;;18.70;99.90;;;;;;5039238;28;20190;-78
2022/08/27 00:14:55;;;;;;;16.60;15.10;;;18.80;99.90;;;;;;5040911;28;20640;-78
2022/08/27 00:17:21;;;;;;;17.97;16.17;;;18.80;99.90;;;;;;5038647;28;20179;-76
2022/08/27 00:19:47;;;;;;;25.93;23.87;;;18.80;99.90;;;;;;5038283;28;20189;-78
2022/08/27 00:22:13;;;;;;;27.97;26.17;;;18.80;99.90;;;;;;5040769;28;20206;-78
2022/08/27 00:24:38;;;;;;;99.87;93.80;;;18.80;99.90;;;;;;5040079;28;20206;-77
2022/08/27 00:27:04;;;;;;;100.40;94.73;;;18.80;99.90;;;;;;5040936;28;20577;-77
2022/08/27 00:29:30;;;;;;;63.03;59.13;;;18.80;99.90;;;;;;5044086;28;20207;-77
2022/08/27 00:31:56;;;;;;;152.73;144.33;;;18.80;99.90;;;;;;5040848;28;20186;-78
2022/08/27 00:34:22;;;;;;;270.13;255.37;;;18.90;99.90;;;;;;5041566;28;20276;-76
2022/08/27 00:36:48;;;;;;;166.97;157.77;;;18.80;99.90;;;;;;5038344;28;20270;-77
2022/08/27 00:39:14;;;;;;;109.33;101.97;;;18.80;99.90;;;;;;5038607;28;20644;-77
2022/08/27 00:41:42;;;;;;;77.23;72.20;;;18.80;99.90;;;;;;5044431;28;20530;-77
2022/08/27 00:44:08;;;;;;;39.73;36.70;;;18.80;99.90;;;;;;5050483;28;20214;-78
2022/08/27 00:46:45;;;;;;;79.73;74.93;;;18.80;99.90;;;;;;5046174;28;20190;-77
2022/08/27 00:49:30;;;;;;;284.60;268.20;;;18.80;99.90;;;;;;5044362;28;20672;-78
2022/08/27 00:52:01;;;;;;;278.07;262.20;;;18.80;99.90;;;;;;5043328;28;20185;-78
2022/08/27 00:54:28;;;;;;;283.97;267.90;;;18.80;99.90;;;;;;5043732;28;20187;-78
2022/08/27 00:56:54;;;;;;;263.50;248.63;;;18.80;99.90;;;;;;5045668;28;20669;-78
2022/08/27 00:59:23;;;;;;;249.47;235.20;;;18.80;99.90;;;;;;5044738;28;20298;-78
2022/08/27 01:04:37;;;;;;;324.30;305.27;;;18.90;99.90;;;;;;5045291;28;20199;-77
2022/08/27 01:07:04;;;;;;;296.00;279.00;;;18.90;99.90;;;;;;5048619;28;20187;-77
2022/08/27 01:09:30;;;;;;;313.43;295.20;;;18.90;99.90;;;;;;5047807;28;20242;-78
2022/08/27 01:11:57;;;;;;;329.17;310.20;;;18.90;99.90;;;;;;5045001;28;20183;-78
2022/08/27 01:14:25;;;;;;;307.60;289.63;;;18.90;99.90;;;;;;5040512;28;20698;-77
2022/08/27 01:16:54;;;;;;;278.23;262.37;;;18.90;99.90;;;;;;5038379;28;20183;-77
2022/08/27 01:19:34;;;;;;;291.93;275.23;;;18.90;99.90;;;;;;5038648;28;20664;-78
2022/08/27 01:22:49;;;;;;;270.47;255.17;;;18.90;99.90;;;;;;5039305;28;20221;-78
2022/08/27 01:25:17;;;;;;;264.57;249.40;;;18.90;99.90;;;;;;5026287;28;20256;-77
2022/08/27 01:27:44;;;;;;;310.27;292.10;;;19.00;99.90;;;;;;5037620;28;20269;-76
2022/08/27 01:30:13;;;;;;;169.90;159.70;;;19.00;99.90;;;;;;5045062;28;20552;-77
2022/08/27 01:32:39;;;;;;;333.70;314.53;;;19.00;99.90;;;;;;5041640;28;20179;-78
2022/08/27 01:35:08;;;;;;;307.70;289.63;;;19.10;99.90;;;;;;5041858;28;20286;-78
2022/08/27 01:37:36;;;;;;;258.13;242.73;;;19.10;99.90;;;;;;5044158;28;20207;-79
2022/08/27 01:40:03;;;;;;;173.77;163.57;;;19.00;99.90;;;;;;5044569;28;20175;-78
2022/08/27 01:42:38;;;;;;;167.80;157.87;;;19.10;99.90;;;;;;5043429;28;20175;-77
2022/08/27 01:45:08;;;;;;;150.57;141.77;;;19.10;99.90;;;;;;5042456;28;20222;-78
2022/08/27 01:47:35;;;;;;;156.80;147.50;;;19.00;99.90;;;;;;5041479;28;20240;-78
2022/08/27 01:50:16;;;;;;;193.43;182.30;;;19.10;99.90;;;;;;5040296;28;20266;-77
2022/08/27 01:52:43;;;;;;;259.40;244.00;;;19.10;99.90;;;;;;5038970;28;20187;-78
2022/08/27 01:55:11;;;;;;;325.27;306.27;;;19.10;99.90;;;;;;5039146;28;20203;-78
2022/08/27 01:57:38;;;;;;;302.53;284.70;;;19.10;99.90;;;;;;5038804;28;20187;-78
2022/08/27 02:00:12;;;;;;;383.20;360.17;;;19.00;99.90;;;;;;5038457;28;20186;-77
2022/08/27 02:02:40;;;;;;;263.67;248.27;;;19.00;99.90;;;;;;5040174;28;20174;-77
2022/08/27 02:05:07;;;;;;;103.23;96.93;;;18.90;99.90;;;;;;5046080;28;20206;-78
2022/08/27 02:07:33;;;;;;;46.47;43.03;;;18.90;99.90;;;;;;5042030;28;20266;-78
2022/08/27 02:09:59;;;;;;;29.77;27.30;;;18.80;99.90;;;;;;5044340;28;20190;-78
2022/08/27 02:12:28;;;;;;;26.50;24.27;;;18.80;99.90;;;;;;5049172;28;20174;-76
2022/08/27 02:14:54;;;;;;;24.87;22.60;;;18.80;99.90;;;;;;5048616;28;20238;-79
2022/08/27 02:17:20;;;;;;;22.80;20.73;;;18.70;99.90;;;;;;5042496;28;20183;-79
2022/08/27 02:19:46;;;;;;;25.27;22.93;;;18.70;99.90;;;;;;5041422;28;20175;-78
2022/08/27 02:22:11;;;;;;;27.37;24.97;;;18.80;99.90;;;;;;5042557;28;20264;-78
2022/08/27 02:24:38;;;;;;;28.70;26.17;;;18.80;99.90;;;;;;5044363;28;20203;-79
2022/08/27 02:27:03;;;;;;;29.63;27.20;;;18.80;99.90;;;;;;5042018;28;20613;-79
2022/08/27 02:29:29;;;;;;;25.20;22.83;;;18.80;99.90;;;;;;5044171;28;20215;-79
2022/08/27 02:31:55;;;;;;;28.23;25.60;;;18.80;99.90;;;;;;5043344;28;20183;-78
2022/08/27 02:34:22;;;;;;;31.23;28.50;;;18.80;99.90;;;;;;5049188;28;20237;-77
2022/08/27 02:36:49;;;;;;;37.37;34.50;;;18.90;99.90;;;;;;5052370;28;20189;-76
2022/08/27 02:39:15;;;;;;;41.47;38.47;;;18.90;99.90;;;;;;5047218;28;20278;-78
2022/08/27 02:41:41;;;;;;;42.40;38.87;;;18.90;99.90;;;;;;5043350;28;20574;-79
2022/08/27 02:44:07;;;;;;;44.83;41.47;;;18.90;99.90;;;;;;5043048;28;20226;-79
2022/08/27 02:46:33;;;;;;;46.83;43.27;;;18.90;99.90;;;;;;5042266;28;20186;-79
2022/08/27 02:48:58;;;;;;;39.33;35.67;;;18.90;99.90;;;;;;5043782;28;20203;-78
2022/08/27 02:51:24;;;;;;;36.67;33.17;;;18.90;99.90;;;;;;5046528;28;20187;-78
2022/08/27 02:53:50;;;;;;;32.37;29.47;;;18.90;99.90;;;;;;5049828;28;20393;-78
2022/08/27 02:56:16;;;;;;;33.53;30.60;;;18.90;99.90;;;;;;5051339;28;20201;-78
2022/08/27 02:58:42;;;;;;;37.20;33.97;;;19.00;99.90;;;;;;5043849;28;20245;-78
2022/08/27 03:01:08;;;;;;;39.23;36.13;;;18.90;99.90;;;;;;5043479;28;20183;-78
2022/08/27 03:03:34;;;;;;;43.63;40.13;;;19.00;99.90;;;;;;5043758;28;20707;-77
2022/08/27 03:06:00;;;;;;;51.23;47.63;;;19.10;99.90;;;;;;5040988;28;20275;-77
2022/08/27 03:08:27;;;;;;;51.80;47.50;;;19.10;99.90;;;;;;5040501;28;20677;-79
2022/08/27 03:10:54;;;;;;;38.63;35.37;;;19.10;99.90;;;;;;5040888;28;20175;-78
2022/08/27 03:13:20;;;;;;;28.50;25.60;;;19.10;99.90;;;;;;5042773;28;20444;-78
2022/08/27 03:15:46;;;;;;;32.80;29.37;;;19.10;99.90;;;;;;5043926;28;20290;-78
2022/08/27 03:18:18;;;;;;;49.13;45.10;;;19.20;99.90;;;;;;5044875;28;20187;-77
2022/08/27 03:20:50;;;;;;;55.53;51.40;;;19.20;99.90;;;;;;5041639;28;20214;-77
2022/08/27 03:23:18;;;;;;;59.27;54.63;;;19.20;99.90;;;;;;5043788;28;20230;-77
2022/08/27 03:25:50;;;;;;;64.17;59.70;;;19.30;99.90;;;;;;5041961;28;20245;-77
2022/08/27 03:28:17;;;;;;;65.93;61.23;;;19.30;99.90;;;;;;5039645;28;20221;-77
2022/08/27 03:30:50;;;;;;;73.33;68.13;;;19.30;99.90;;;;;;5045574;28;20186;-76
2022/08/27 03:33:18;;;;;;;53.67;49.93;;;19.30;99.90;;;;;;5043871;28;20702;-77
2022/08/27 03:35:45;;;;;;;61.27;56.67;;;19.30;99.90;;;;;;5041878;28;20549;-78
2022/08/27 03:38:11;;;;;;;61.60;56.80;;;19.30;99.90;;;;;;5040086;28;20733;-78
2022/08/27 03:40:37;;;;;;;51.67;47.90;;;19.30;99.90;;;;;;5040482;28;20191;-78
2022/08/27 03:43:03;;;;;;;51.60;47.73;;;19.30;99.90;;;;;;5042411;28;20186;-77
2022/08/27 03:45:29;;;;;;;45.73;42.10;;;19.30;99.90;;;;;;5065508;23;20235;-78
2022/08/27 03:47:58;;;;;;;45.42;41.97;;;19.30;99.90;;;;;;5014977;28;20219;-79
2022/08/27 03:50:24;;;;;;;51.43;47.70;;;19.30;99.90;;;;;;5017020;28;20239;-78
2022/08/27 03:52:50;;;;;;;51.53;47.73;;;19.30;99.90;;;;;;5001440;28;20280;-79
2022/08/27 03:55:16;;;;;;;47.77;43.77;;;19.30;99.90;;;;;;4997631;28;20208;-78
2022/08/27 03:57:45;;;;;;;40.13;36.90;;;19.30;99.90;;;;;;4998580;28;20243;-78
2022/08/27 04:00:14;;;;;;;34.37;31.27;;;19.30;99.90;;;;;;4998636;28;20196;-78
2022/08/27 04:02:43;;;;;;;24.87;20.97;;;19.30;99.90;;;;;;4999257;28;20180;-79
2022/08/27 04:05:13;;;;;;;28.97;26.17;;;19.30;99.90;;;;;;4996790;28;20435;-79
2022/08/27 04:07:51;;;;;;;24.37;21.90;;;19.40;99.90;;;;;;4997068;28;20195;-78
2022/08/27 04:10:22;;;;;;;27.87;25.03;;;19.40;99.90;;;;;;4999112;28;20183;-78
2022/08/27 04:12:54;;;;;;;26.57;23.27;;;19.40;99.90;;;;;;4999683;28;20687;-78
2022/08/27 04:15:28;;;;;;;31.90;28.90;;;19.40;99.90;;;;;;5003503;28;20639;-78
2022/08/27 04:17:54;;;;;;;87.53;81.78;;;19.40;99.90;;;;;;5018444;28;20180;-77
2022/08/27 04:20:20;;;;;;;178.77;168.03;;;19.50;99.90;;;;;;5015446;28;20180;-79
2022/08/27 04:22:47;;;;;;;258.60;243.53;;;19.50;99.90;;;;;;5017069;28;20226;-78
2022/08/27 04:25:15;;;;;;;323.83;305.10;;;19.50;99.90;;;;;;5015086;28;20203;-78
2022/08/27 04:27:42;;;;;;;356.03;334.97;;;19.50;99.90;;;;;;5013518;28;20330;-78
2022/08/27 04:30:09;;;;;;;389.93;366.50;;;19.50;99.90;;;;;;5020076;28;20677;-78
2022/08/27 04:32:35;;;;;;;381.02;358.17;;;19.50;99.90;;;;;;5017704;28;20183;-78
2022/08/27 04:35:02;;;;;;;315.90;296.47;;;19.50;99.90;;;;;;5016193;28;20200;-78
2022/08/27 04:37:31;;;;;;;281.70;264.97;;;19.50;99.90;;;;;;5015143;28;20176;-78
2022/08/27 04:39:58;;;;;;;305.93;287.17;;;19.50;99.90;;;;;;5015307;28;20559;-77
2022/08/27 04:42:26;;;;;;;330.87;310.67;;;19.50;99.90;;;;;;5016203;28;20230;-78
2022/08/27 04:44:52;;;;;;;250.97;235.23;;;19.50;99.90;;;;;;5016274;28;20587;-77
2022/08/27 04:47:21;;;;;;;217.00;202.67;;;19.50;99.90;;;;;;5013257;28;20191;-78
2022/08/27 04:49:53;;;;;;;196.03;182.90;;;19.50;99.90;;;;;;5030534;28;20559;-79
2022/08/27 04:52:24;;;;;;;199.03;185.53;;;19.50;99.90;;;;;;5014988;28;20191;-78
2022/08/27 04:54:55;;;;;;;192.77;179.37;;;19.50;99.90;;;;;;5016125;28;20199;-77
2022/08/27 04:57:28;;;;;;;184.87;172.53;;;19.60;99.90;;;;;;5015335;28;20187;-78
2022/08/27 04:59:56;;;;;;;183.27;171.37;;;19.60;99.90;;;;;;5014274;28;20190;-77
2022/08/27 05:02:22;;;;;;;150.03;139.13;;;19.60;99.90;;;;;;5014002;28;20191;-78
2022/08/27 05:04:51;;;;;;;114.77;106.43;;;19.70;99.90;;;;;;5014225;28;20208;-77
2022/08/27 05:07:18;;;;;;;107.30;98.80;;;19.70;99.90;;;;;;5014314;28;20292;-78
2022/08/27 05:09:43;;;;;;;101.23;92.87;;;19.70;99.90;;;;;;5005860;28;20259;-76
2022/08/27 05:12:09;;;;;;;64.17;57.63;;;19.70;99.90;;;;;;5007706;28;20188;-77
2022/08/27 05:14:37;;;;;;;46.37;41.33;;;19.70;99.90;;;;;;4994762;28;20622;-76
2022/08/27 05:17:05;;;;;;;41.07;31.53;;;19.70;99.90;;;;;;5011419;28;20191;-76
2022/08/27 05:19:31;;;;;;;41.80;30.47;;;19.70;99.90;;;;;;5012244;28;20274;-77
2022/08/27 05:22:00;;;;;;;37.90;31.60;;;19.80;99.90;;;;;;5013985;28;20180;-73
2022/08/27 05:24:26;;;;;;;38.33;32.37;;;19.80;99.90;;;;;;5005275;28;20199;-73
2022/08/27 05:26:52;;;;;;;37.50;33.53;;;19.80;99.90;;;;;;5006912;28;20219;-74
2022/08/27 05:29:19;;;;;;;49.07;43.27;;;19.80;99.90;;;;;;4993680;28;20683;-74
2022/08/27 05:31:46;;;;;;;44.57;39.83;;;19.80;99.90;;;;;;4994526;28;20227;-74
2022/08/27 05:34:13;;;;;;;43.20;38.87;;;19.80;99.90;;;;;;4994678;28;20746;-74
2022/08/27 05:36:40;;;;;;;41.23;35.97;;;19.80;99.90;;;;;;4992009;28;20186;-74
2022/08/27 05:39:06;;;;;;;37.53;33.40;;;19.80;99.90;;;;;;4991149;28;20238;-74
2022/08/27 05:41:32;;;;;;;42.73;38.23;;;19.80;99.90;;;;;;4992799;28;20857;-74
2022/08/27 05:44:02;;;;;;;39.07;34.90;;;19.80;99.90;;;;;;5007560;28;20216;-74
2022/08/27 05:46:28;;;;;;;33.73;30.27;;;19.90;99.90;;;;;;4992358;28;20267;-74
2022/08/27 05:48:59;;;;;;;35.70;31.83;;;19.90;99.90;;;;;;4990261;28;20367;-73
2022/08/27 05:51:31;;;;;;;37.03;31.07;;;19.90;99.90;;;;;;4992866;28;20258;-73
2022/08/27 05:54:02;;;;;;;36.53;31.00;;;19.90;99.90;;;;;;4990931;28;20201;-74
2022/08/27 05:56:31;;;;;;;40.33;31.03;;;19.90;99.90;;;;;;4996590;28;20172;-74
2022/08/27 06:01:45;;;;;;;35.97;31.20;;;20.00;99.90;;;;;;5011208;28;20278;-74
2022/08/27 06:04:11;;;;;;;35.53;31.73;;;20.10;99.90;;;;;;5011731;28;20211;-72
2022/08/27 06:06:39;;;;;;;41.87;36.97;;;20.10;99.90;;;;;;5005910;28;20556;-74
2022/08/27 06:09:07;;;;;;;43.80;39.17;;;20.20;99.90;;;;;;4999827;28;20208;-73
2022/08/27 06:11:33;;;;;;;50.87;45.87;;;20.30;99.90;;;;;;5010896;28;20184;-73
2022/08/27 06:13:59;;;;;;;48.07;43.53;;;20.30;99.90;;;;;;5011430;28;20203;-73
2022/08/27 06:16:26;;;;;;;54.30;49.63;;;20.40;99.90;;;;;;5007321;28;20181;-74
2022/08/27 06:18:53;;;;;;;55.60;50.83;;;20.40;99.90;;;;;;4998206;28;20195;-74
2022/08/27 06:21:19;;;;;;;79.83;73.80;;;20.50;99.90;;;;;;4990825;28;20188;-73
2022/08/27 06:23:46;;;;;;;96.50;89.70;;;20.60;99.90;;;;;;4990994;28;20236;-76
2022/08/27 06:26:15;;;;;;;50.47;46.00;;;20.60;99.90;;;;;;4993250;28;20255;-74
2022/08/27 06:28:41;;;;;;;41.63;37.33;;;20.70;99.90;;;;;;4992558;28;20215;-74
2022/08/27 06:31:08;;;;;;;43.93;34.67;;;20.70;99.90;;;;;;4991205;28;20353;-73
2022/08/27 06:33:34;;;;;;;51.00;45.93;;;20.80;99.90;;;;;;4990923;28;20181;-73
2022/08/27 06:36:02;;;;;;;50.97;45.87;;;20.90;99.90;;;;;;5006803;28;20657;-74
2022/08/27 06:38:28;;;;;;;109.07;101.20;;;20.90;99.90;;;;;;4990338;28;20176;-75
2022/08/27 06:40:55;;;;;;;105.10;97.33;;;20.90;99.90;;;;;;5009844;28;20188;-74
2022/08/27 06:43:22;;;;;;;93.03;85.43;;;21.10;99.90;;;;;;5011251;28;20184;-74
2022/08/27 06:45:48;;;;;;;58.42;53.03;;;21.10;99.90;;;;;;5025443;28;20203;-74
2022/08/27 06:48:14;;;;;;;41.57;37.07;;;21.20;99.90;;;;;;5028385;28;20272;-74
2022/08/27 06:50:41;;;;;;;40.53;36.33;;;21.30;99.90;;;;;;5012616;28;20184;-75
2022/08/27 06:53:07;;;;;;;42.53;36.40;;;21.40;99.90;;;;;;5011577;28;20187;-74
2022/08/27 06:55:44;;;;;;;39.83;35.75;;;21.50;99.90;;;;;;5010857;28;20200;-74
2022/08/27 06:58:11;;;;;;;46.38;41.80;;;21.60;99.90;;;;;;5010814;28;20187;-74
2022/08/27 07:00:37;;;;;;;58.90;53.65;;;21.80;99.90;;;;;;4996424;28;20176;-74
2022/08/27 07:03:05;;;;;;;49.97;45.28;;;21.90;99.90;;;;;;5004625;28;20179;-74
2022/08/27 07:05:34;;;;;;;38.58;34.50;;;22.00;99.90;;;;;;5012733;28;20564;-76
2022/08/27 07:08:00;;;;;;;40.60;34.60;;;22.00;99.90;;;;;;5010684;28;20180;-74
2022/08/27 07:10:28;;;;;;;45.47;40.40;;;22.00;99.90;;;;;;4997017;28;20176;-75
2022/08/27 07:12:54;;;;;;;53.05;47.85;;;21.90;99.90;;;;;;4991839;28;20204;-75
2022/08/27 07:15:19;;;;;;;52.55;47.47;;;21.70;99.90;;;;;;4991709;28;20278;-75
2022/08/27 07:17:45;;;;;;;48.75;43.88;;;21.60;99.90;;;;;;4990886;28;20581;-75
2022/08/27 07:20:13;;;;;;;53.35;47.90;;;21.60;99.90;;;;;;5003377;28;20266;-75
2022/08/27 07:22:41;;;;;;;37.15;32.28;;;21.50;99.90;;;;;;5013994;28;20621;-75
2022/08/27 07:25:11;;;;;;;39.17;33.40;;;21.60;99.90;;;;;;5014103;28;20202;-75
2022/08/27 07:27:38;;;;;;;45.53;34.25;;;21.60;99.90;;;;;;5014469;28;20176;-75
2022/08/27 07:30:05;;;;;;;40.60;34.05;;;21.70;99.90;;;;;;5004296;28;20200;-75
2022/08/27 07:32:32;;;;;;;43.58;38.78;;;21.90;99.90;;;;;;4995860;28;20724;-75
2022/08/27 07:34:58;;;;;;;41.58;37.20;;;22.30;99.90;;;;;;4994418;28;20226;-75
2022/08/27 07:37:24;;;;;;;91.15;83.85;;;22.60;99.90;;;;;;4994777;28;20207;-75
2022/08/27 07:39:49;;;;;;;99.55;92.20;;;22.90;99.90;;;;;;5002837;28;20266;-75
2022/08/27 07:45:00;;;;;;;77.28;70.93;;;23.10;99.90;;;;;;5015405;28;20249;-76
2022/08/27 07:47:26;;;;;;;53.38;48.53;;;23.10;99.90;;;;;;5014756;28;20211;-77
2022/08/27 07:49:52;;;;;;;55.70;50.28;;;22.80;99.90;;;;;;5012661;28;20722;-77
2022/08/27 07:52:18;;;;;;;73.03;66.95;;;22.60;99.90;;;;;;5034252;28;20176;-76
2022/08/27 07:54:44;;;;;;;127.35;118.72;;;22.40;99.90;;;;;;5023836;28;20271;-76
2022/08/27 07:57:10;;;;;;;184.40;172.85;;;22.00;99.90;;;;;;5014451;28;20614;-76
2022/08/27 07:59:37;;;;;;;132.27;121.88;;;21.80;99.90;;;;;;5011819;28;20212;-75
2022/08/27 08:02:03;;;;;;;134.55;119.97;;;21.70;99.90;;;;;;5014485;28;20180;-76
2022/08/27 08:04:29;;;;;;;69.57;61.95;;;21.60;99.90;;;;;;5013586;28;20219;-76
2022/08/27 08:06:55;;;;;;;62.92;56.17;;;21.60;99.90;;;;;;5014344;28;20215;-78
2022/08/27 08:09:23;;;;;;;43.80;39.13;;;21.80;99.90;;;;;;5011535;28;20246;-73
2022/08/27 08:11:53;;;;;;;39.13;33.20;;;22.00;99.90;;;;;;4992684;28;20315;-74
2022/08/27 08:14:19;;;;;;;121.38;113.03;;;22.20;99.90;;;;;;4994415;28;20204;-75
2022/08/27 08:16:45;;;;;;;156.93;146.75;;;22.50;99.90;;;;;;4994204;28;20199;-71
2022/08/27 08:19:11;;;;;;;180.05;169.18;;;22.50;99.90;;;;;;4994853;28;20188;-74
2022/08/27 08:21:38;;;;;;;163.82;152.05;;;22.60;99.90;;;;;;5013174;28;20198;-82
2022/08/27 08:24:05;;;;;;;127.40;117.90;;;22.60;99.90;;;;;;5013179;28;20868;-76
2022/08/27 08:26:30;;;;;;;102.97;95.10;;;22.50;99.90;;;;;;5013956;28;20215;-74
2022/08/27 08:28:56;;;;;;;78.25;71.90;;;22.50;99.90;;;;;;5016261;28;20305;-73
2022/08/27 08:31:23;;;;;;;72.45;66.70;;;22.50;99.90;;;;;;4996227;28;20176;-75
2022/08/27 08:33:49;;;;;;;82.43;75.45;;;22.50;99.90;;;;;;4993701;28;20200;-74
2022/08/27 08:36:16;;;;;;;86.25;79.40;;;22.50;99.90;;;;;;5008497;28;20180;-75
2022/08/27 08:38:44;;;;;;;86.72;79.75;;;22.40;99.90;;;;;;5013218;28;20188;-75
2022/08/27 08:41:37;;;;;;;151.30;140.90;;;22.30;99.90;;;;;;4996684;28;20176;-74
2022/08/27 08:44:15;;;;;;;161.52;151.18;;;22.10;99.90;;;;;;5001025;28;20211;-75
2022/08/27 08:47:06;;;;;;;177.65;166.45;;;22.00;99.90;;;;;;5012452;28;20191;-74
2022/08/27 08:49:39;;;;;;;199.27;186.27;;;22.00;99.90;;;;;;5011332;28;20200;-79
2022/08/27 08:52:24;;;;;;;169.70;158.60;;;21.80;99.90;;;;;;5013552;28;20186;-75
2022/08/27 08:54:52;;;;;;;131.13;121.32;;;21.70;99.90;;;;;;5011601;28;20612;-75
2022/08/27 08:57:25;;;;;;;60.80;54.85;;;21.60;99.90;;;;;;5012505;28;20198;-74
2022/08/27 09:00:00;;;;;;;52.75;47.45;;;21.60;99.90;;;;;;5012587;28;20184;-76
2022/08/27 09:02:26;;;;;;;68.68;62.53;;;21.60;99.90;;;;;;5012626;28;20187;-76
2022/08/27 09:04:52;;;;;;;80.68;73.82;;;21.70;99.90;;;;;;5013122;28;20202;-75
2022/08/27 09:08:01;;;;;;;69.57;63.80;;;21.70;99.90;;;;;;5012490;28;20194;-76
2022/08/27 09:10:52;;;;;;;80.18;73.72;;;21.70;99.90;;;;;;5014045;28;20192;-76
2022/08/27 09:13:52;;;;;;;60.38;54.90;;;21.70;99.90;;;;;;4994859;28;20199;-77
2022/08/27 09:17:00;;;;;;;109.23;101.73;;;21.80;99.90;;;;;;5087400;27;20533;-75
2022/08/27 09:19:26;;;;;;;105.82;98.40;;;21.90;99.90;;;;;;5088181;28;20733;-76
2022/08/27 09:22:11;;;;;;;84.28;77.38;;;22.00;99.90;;;;;;5087180;28;20180;-76
2022/08/27 09:24:58;;;;;;;42.70;38.40;;;22.00;99.90;;;;;;5078089;28;20201;-75
2022/08/27 09:27:24;;;;;;;39.50;33.38;;;22.10;99.90;;;;;;5067195;28;20181;-75
2022/08/27 09:29:53;;;;;;;37.78;33.53;;;22.00;99.90;;;;;;5067965;28;20659;-75
2022/08/27 09:32:24;;;;;;;63.30;57.90;;;22.00;99.90;;;;;;5068024;28;20182;-76
2022/08/27 09:34:50;;;;;;;55.88;50.78;;;21.80;99.90;;;;;;5067944;28;20263;-76
2022/08/27 09:37:23;;;;;;;112.40;103.50;;;21.60;99.90;;;;;;5067034;28;20247;-76
2022/08/27 09:39:55;;;;;;;158.30;147.00;;;21.30;99.90;;;;;;5068090;28;20184;-75
2022/08/27 09:42:47;;;;;;;135.43;125.53;;;21.00;99.90;;;;;;5067675;28;20217;-76
2022/08/27 09:45:19;;;;;;;97.82;89.43;;;20.80;99.90;;;;;;5081761;22;20234;-77
2022/08/27 09:47:53;;;;;;;59.53;53.67;;;20.70;99.90;;;;;;5050427;28;20266;-77
2022/08/27 09:50:30;;;;;;;74.37;66.77;;;20.70;99.90;;;;;;5049409;28;20518;-77
2022/08/27 09:52:58;;;;;;;123.03;113.43;;;20.60;99.90;;;;;;5048374;28;20174;-78
2022/08/27 09:55:25;;;;;;;117.17;108.20;;;20.40;99.90;;;;;;5047765;28;20216;-78
2022/08/27 09:57:51;;;;;;;84.70;76.57;;;20.30;99.90;;;;;;5047149;28;20178;-76
2022/08/27 10:00:17;;;;;;;140.17;130.30;;;20.30;99.90;;;;;;5047893;28;20174;-79
2022/08/27 10:02:53;;;;;;;127.93;117.87;;;20.20;99.90;;;;;;5048499;28;20205;-78
2022/08/27 10:05:31;;;;;;;91.83;83.60;;;20.20;99.90;;;;;;5050264;28;20706;-79
2022/08/27 10:08:32;;;;;;;275.23;256.47;;;20.20;99.90;;;;;;5046942;28;20190;-79
2022/08/27 10:11:31;;;;;;;249.17;232.13;;;20.10;99.90;;;;;;5044037;28;20197;-78
2022/08/27 10:14:15;;;;;;;207.63;194.73;;;20.10;99.90;;;;;;5047815;28;20213;-78
2022/08/27 10:16:51;;;;;;;79.10;73.07;;;19.90;99.90;;;;;;5047418;28;20210;-78
2022/08/27 10:19:33;;;;;;;83.20;77.37;;;19.80;99.90;;;;;;5048068;28;20643;-78
2022/08/27 10:22:18;;;;;;;56.67;52.33;;;19.70;99.90;;;;;;5047978;28;20171;-78
2022/08/27 10:24:54;;;;;;;46.40;42.50;;;19.70;99.90;;;;;;5047997;28;20205;-78
2022/08/27 10:27:58;;;;;;;45.73;42.20;;;19.70;99.90;;;;;;5039422;28;20541;-78
2022/08/27 10:31:01;;;;;;;43.17;39.23;;;19.70;99.90;;;;;;5033158;28;20663;-78
2022/08/27 10:34:19;;;;;;;101.70;95.00;;;19.60;99.90;;;;;;5034717;28;20214;-78
2022/08/27 10:36:51;;;;;;;103.60;96.97;;;19.60;99.90;;;;;;5024613;28;20222;-78
2022/08/27 10:39:45;;;;;;;85.00;79.53;;;19.70;99.90;;;;;;5033508;28;20671;-78
2022/08/27 10:42:17;;;;;;;61.43;57.00;;;19.70;99.90;;;;;;5031497;28;20195;-78
2022/08/27 10:45:21;;;;;;;55.30;51.20;;;19.70;99.90;;;;;;5033255;28;20250;-78
2022/08/27 10:48:11;;;;;;;41.30;37.93;;;19.70;99.90;;;;;;5010705;28;20214;-78
2022/08/27 10:51:08;;;;;;;34.30;31.50;;;19.80;99.90;;;;;;5014746;28;20664;-78
2022/08/27 10:54:15;;;;;;;29.33;27.00;;;19.90;99.90;;;;;;5031746;28;20664;-78
2022/08/27 10:56:54;;;;;;;29.63;26.97;;;19.80;99.90;;;;;;5008460;28;20222;-79
2022/08/27 10:59:42;;;;;;;35.53;32.40;;;19.90;99.90;;;;;;5048145;28;20194;-79
2022/08/27 11:02:08;;;;;;;32.10;29.27;;;19.90;99.90;;;;;;5034079;28;20563;-79
2022/08/27 11:04:44;;;;;;;47.63;44.20;;;19.90;99.90;;;;;;5038212;28;20203;-79
2022/08/27 11:07:36;;;;;;;39.83;36.83;;;19.90;99.90;;;;;;5014704;28;20675;-79
2022/08/27 11:10:08;;;;;;;86.03;79.77;;;19.90;99.90;;;;;;5014915;28;20182;-81
2022/08/27 11:12:41;;;;;;;45.10;41.47;;;19.90;99.90;;;;;;5016192;28;20179;-81
2022/08/27 11:15:14;;;;;;;54.43;49.93;;;19.90;99.90;;;;;;5019853;28;20286;-82
2022/08/27 11:17:52;;;;;;;31.10;28.23;;;19.90;99.90;;;;;;5034124;28;20241;-81
2022/08/27 11:20:33;;;;;;;29.53;26.70;;;20.00;99.90;;;;;;5034521;28;20179;-79
2022/08/27 11:23:05;;;;;;;30.30;27.60;;;20.00;99.90;;;;;;5033314;28;20182;-81
2022/08/27 11:25:50;;;;;;;33.07;30.00;;;20.00;99.90;;;;;;5034136;28;21911;-82
2022/08/27 11:28:20;;;;;;;35.07;32.00;;;20.00;99.90;;;;;;5038794;28;20232;-82
2022/08/27 11:31:02;;;;;;;28.27;25.67;;;19.90;99.90;;;;;;5040068;28;20260;-82
2022/08/27 11:34:17;;;;;;;29.93;27.03;;;20.00;99.90;;;;;;5036473;28;20705;-83
2022/08/27 11:36:58;;;;;;;40.07;36.67;;;19.90;99.90;;;;;;4984882;28;20213;-85
2022/08/27 11:39:36;;;;;;;44.77;41.07;;;19.90;99.90;;;;;;4958969;28;20212;-83
2022/08/27 11:42:22;;;;;;;58.10;53.90;;;19.90;99.90;;;;;;5013730;28;20195;-83
2022/08/27 11:44:53;;;;;;;79.30;73.20;;;19.90;99.90;;;;;;5034921;28;20238;-84
2022/08/27 11:47:22;;;;;;;76.80;71.33;;;19.90;99.90;;;;;;5035908;28;20182;-84
2022/08/27 11:49:53;;;;;;;83.97;78.20;;;19.90;99.90;;;;;;5037651;28;20647;-83
2022/08/27 11:52:36;;;;;;;74.57;69.20;;;20.00;99.90;;;;;;5034519;28;20211;-83
2022/08/27 11:55:11;;;;;;;63.10;58.33;;;20.00;99.90;;;;;;5033084;28;20207;-82
2022/08/27 11:57:39;;;;;;;32.83;29.93;;;19.90;99.90;;;;;;5033675;28;20253;-82
2022/08/27 12:00:24;;;;;;;82.93;77.73;;;19.70;99.90;;;;;;5039354;28;20171;-81
2022/08/27 12:03:01;;;;;;;56.33;52.43;;;19.30;99.90;;;;;;5033680;28;20194;-83
2022/08/27 12:06:00;;;;;;;23.63;21.93;;;19.20;99.90;;;;;;5033294;28;20341;-81
2022/08/27 12:08:31;;;;;;;28.67;26.70;;;19.00;99.90;;;;;;5021740;28;20202;-80
2022/08/27 12:11:28;;;;;;;35.57;33.27;;;18.80;99.90;;;;;;5032506;28;20208;-79
2022/08/27 12:14:11;;;;;;;75.40;71.27;;;18.60;99.90;;;;;;5034131;28;20240;-80
2022/08/27 12:17:12;;;;;;;24.27;22.63;;;18.40;99.90;;;;;;5032523;28;20229;-82
2022/08/27 12:20:06;;;;;;;43.03;40.60;;;18.30;99.90;;;;;;5056011;28;20203;-81
2022/08/27 12:25:27;;;;;;;247.30;234.73;;;18.20;99.90;;;;;;4991377;28;20210;-79
2022/08/27 12:28:01;;;;;;;101.13;95.40;;;18.10;99.90;;;;;;5037571;28;20187;-79
2022/08/27 12:30:40;;;;;;;82.33;77.83;;;18.10;99.90;;;;;;5032122;28;20639;-80
2022/08/27 12:33:18;;;;;;;54.40;50.97;;;18.10;99.90;;;;;;5031201;28;20193;-79
2022/08/27 12:35:47;;;;;;;25.17;23.47;;;18.20;99.90;;;;;;5031615;28;20210;-79
2022/08/27 12:38:30;;;;;;;24.60;23.00;;;18.20;99.90;;;;;;5030093;28;20266;-79
2022/08/27 12:41:07;;;;;;;25.80;23.97;;;18.30;99.90;;;;;;5030793;28;20237;-78
2022/08/27 12:43:37;;;;;;;43.50;40.87;;;18.30;99.90;;;;;;5031886;28;20186;-78
2022/08/27 12:46:07;;;;;;;129.67;122.57;;;18.40;99.90;;;;;;5031400;28;20639;-77
2022/08/27 12:48:42;;;;;;;104.20;98.33;;;18.60;99.90;;;;;;5031602;28;20214;-77
2022/08/27 12:51:32;;;;;;;228.47;216.00;;;19.00;99.90;;;;;;5031956;28;20555;-78
2022/08/27 12:54:33;;;;;;;38.57;36.43;;;19.40;99.90;;;;;;5032291;28;20187;-78